Time;durP1;ratioP1;P1;durP2;ratioP2;P2;SDS_P1;SDS_P2;PMS_P1;PMS_P2;Temp;Humidity;BMP_temperature;BMP_pressure;BME280_temperature;BME280_humidity;BME280_pressure;Samples;Min_cycle;Max_cycle;Signal;HPM_P1;HPM_P2
2021/06/12 00:00:13;;;;;;;62.53;33.13;;;;;;;14.13;90.58;98784.63;5025724;28;20246;-62
2021/06/12 00:02:39;;;;;;;59.88;32.25;;;;;;;13.96;90.48;98782.69;5027267;28;20524;-63
2021/06/12 00:05:07;;;;;;;74.07;36.53;;;;;;;13.85;91.01;98773.13;5027699;28;20481;-61
2021/06/12 00:07:34;;;;;;;77.80;36.63;;;;;;;13.79;91.90;98777.97;5027692;28;20045;-58
2021/06/12 00:10:03;;;;;;;77.57;36.58;;;;;;;13.78;92.19;98775.56;5026049;28;20136;-61
2021/06/12 00:12:30;;;;;;;75.18;35.45;;;;;;;13.62;92.41;98759.53;5028328;28;20049;-62
2021/06/12 00:14:56;;;;;;;76.82;36.38;;;;;;;13.72;92.69;98772.94;5027208;28;20099;-62
2021/06/12 00:17:22;;;;;;;92.95;39.22;;;;;;;13.78;92.82;98772.81;5028540;28;20046;-60
2021/06/12 00:19:49;;;;;;;83.55;38.17;;;;;;;13.71;93.16;98768.59;5021634;28;20083;-61
2021/06/12 00:22:15;;;;;;;88.32;38.50;;;;;;;13.68;93.18;98771.19;5020287;28;20049;-61
2021/06/12 00:24:41;;;;;;;86.25;39.03;;;;;;;13.67;92.86;98766.81;5027756;28;20133;-60
2021/06/12 00:27:17;;;;;;;82.80;38.67;;;;;;;13.65;93.29;98767.13;5027075;28;20046;-60
2021/06/12 00:29:42;;;;;;;;;;;;;;;13.67;92.96;98764.06;5026243;28;20405;-60
2021/06/12 00:32:08;;;;;;;89.78;39.65;;;;;;;13.68;93.27;98763.75;5028096;28;19925;-62
2021/06/12 00:34:34;;;;;;;89.70;39.90;;;;;;;13.73;93.35;98763.56;5026793;28;20568;-61
2021/06/12 00:37:00;;;;;;;91.47;39.63;;;;;;;13.74;93.16;98765.22;5028016;28;20095;-61
2021/06/12 00:39:26;;;;;;;77.85;37.05;;;;;;;13.75;92.82;98750.34;5025414;28;20041;-61
2021/06/12 00:41:52;;;;;;;77.35;37.22;;;;;;;13.77;92.81;98740.97;5026131;28;20095;-60
2021/06/12 00:44:20;;;;;;;72.28;36.97;;;;;;;13.78;92.79;98746.13;5034113;28;20052;-60
2021/06/12 00:46:46;;;;;;;;;;;;;;;13.75;92.46;98738.53;5025155;28;20042;-62
2021/06/12 00:49:12;;;;;;;76.15;37.33;;;;;;;13.77;92.76;98741.78;5025252;28;19925;-61
2021/06/12 00:51:38;;;;;;;77.43;37.30;;;;;;;13.80;92.57;98743.06;5027792;28;20045;-62
2021/06/12 00:54:04;;;;;;;77.85;39.38;;;;;;;13.82;92.04;98740.81;5026455;28;20048;-60
2021/06/12 00:56:30;;;;;;;80.57;39.22;;;;;;;13.83;92.08;98747.91;5025785;28;20445;-62
2021/06/12 00:58:56;;;;;;;86.68;40.20;;;;;;;13.83;91.82;98739.69;5027576;28;20103;-61
2021/06/12 01:01:24;;;;;;;75.57;38.00;;;;;;;13.85;91.73;98751.97;5024217;28;20133;-60
2021/06/12 01:03:50;;;;;;;76.57;38.15;;;;;;;13.95;91.66;98752.75;5027096;28;20543;-61
2021/06/12 01:06:20;;;;;;;77.50;38.08;;;;;;;14.04;91.67;98750.84;5031747;28;20057;-62
2021/06/12 01:08:46;;;;;;;75.47;37.83;;;;;;;13.96;91.26;98746.13;5032353;28;20049;-62
2021/06/12 01:11:12;;;;;;;77.90;38.50;;;;;;;13.96;91.11;98746.13;5029240;28;20099;-60
2021/06/12 01:13:49;;;;;;;68.07;36.00;;;;;;;14.03;91.28;98750.00;5030829;28;20048;-63
2021/06/12 01:16:21;;;;;;;73.63;36.90;;;;;;;14.03;91.23;98746.47;5030315;28;20064;-61
2021/06/12 01:18:52;;;;;;;69.57;35.60;;;;;;;14.06;90.91;98754.06;5031143;28;20049;-61
2021/06/12 01:21:29;;;;;;;68.60;36.15;;;;;;;14.10;90.96;98754.22;5030475;28;20448;-60
2021/06/12 01:24:22;;;;;;;59.78;33.42;;;;;;;14.14;90.59;98752.44;5026756;28;20489;-62
2021/06/12 01:27:21;;;;;;;68.20;32.83;;;;;;;14.09;90.74;98747.13;5031431;28;20588;-62
2021/06/12 01:30:17;;;;;;;64.78;34.33;;;;;;;14.02;90.43;98745.66;5029941;28;20052;-61
2021/06/12 01:32:49;;;;;;;64.70;33.25;;;;;;;14.08;90.67;98740.81;5014198;28;20465;-62
2021/06/12 01:35:23;;;;;;;66.65;34.33;;;;;;;14.06;90.46;98743.06;5030409;28;20046;-59
2021/06/12 01:37:50;;;;;;;69.95;34.13;;;;;;;14.11;90.68;98745.66;5031622;28;20056;-60
2021/06/12 01:40:21;;;;;;;62.10;33.40;;;;;;;14.20;90.26;98753.09;5030968;28;20407;-63
2021/06/12 01:42:48;;;;;;;59.22;31.73;;;;;;;14.17;89.96;98751.78;5027796;28;20046;-62
2021/06/12 01:45:16;;;;;;;52.05;30.17;;;;;;;14.19;89.91;98755.03;5029528;28;20052;-62
2021/06/12 01:47:43;;;;;;;65.43;34.13;;;;;;;14.16;89.97;98748.25;5029748;28;20053;-62
2021/06/12 01:50:11;;;;;;;63.17;33.08;;;;;;;14.20;90.05;98745.63;5030482;28;20474;-61
2021/06/12 01:52:39;;;;;;;52.50;31.17;;;;;;;14.31;89.99;98738.69;5029145;28;20127;-61
2021/06/12 01:55:07;;;;;;;51.92;29.45;;;;;;;14.42;89.49;98750.13;5029768;28;20446;-61
2021/06/12 01:57:33;;;;;;;47.50;28.50;;;;;;;14.56;89.54;98744.47;5029980;28;20045;-62
2021/06/12 02:00:00;;;;;;;56.13;29.73;;;;;;;14.64;89.30;98748.34;5029640;28;20045;-62
2021/06/12 02:02:28;;;;;;;49.70;29.55;;;;;;;14.79;88.99;98741.50;5029611;28;20072;-62
2021/06/12 02:04:55;;;;;;;;;;;;;;;14.92;88.84;98739.69;5031028;28;20409;-61
2021/06/12 02:07:24;;;;;;;50.60;28.05;;;;;;;14.99;88.37;98742.72;5029252;28;19925;-61
2021/06/12 02:09:51;;;;;;;47.65;26.35;;;;;;;15.06;88.37;98739.47;5029184;28;20053;-61
2021/06/12 02:12:18;;;;;;;;;;;;;;;15.08;88.16;98728.13;5029775;28;20045;-61
2021/06/12 02:14:45;;;;;;;60.90;28.58;;;;;;;15.15;88.18;98732.00;5028582;28;19935;-61
2021/06/12 02:17:12;;;;;;;;;;;;;;;15.17;87.95;98732.47;5025568;28;20077;-60
2021/06/12 02:19:41;;;;;;;51.60;29.35;;;;;;;15.05;87.85;98729.59;5022726;28;19932;-61
2021/06/12 02:22:07;;;;;;;43.75;28.05;;;;;;;15.07;88.03;98734.78;5026696;28;20127;-60
2021/06/12 02:24:34;;;;;;;48.47;28.20;;;;;;;15.11;87.94;98733.75;5029109;28;20411;-62
2021/06/12 02:27:01;;;;;;;56.13;32.13;;;;;;;15.03;87.46;98729.91;5025266;28;20045;-61
2021/06/12 02:29:28;;;;;;;49.78;29.73;;;;;;;14.93;87.82;98732.22;5026113;28;20045;-60
2021/06/12 02:32:02;;;;;;;52.83;30.90;;;;;;;14.87;87.48;98728.84;5024596;28;20038;-61
2021/06/12 02:34:30;;;;;;;52.17;30.77;;;;;;;14.83;87.43;98734.22;5026272;28;20044;-61
2021/06/12 02:36:57;;;;;;;53.42;31.48;;;;;;;14.77;87.53;98740.25;5024294;28;20057;-60
2021/06/12 02:39:23;;;;;;;;;;;;;;;14.81;87.40;98732.94;5026553;28;20045;-60
2021/06/12 02:41:49;;;;;;;55.15;31.45;;;;;;;14.89;87.23;98732.91;5024594;28;20044;-60
2021/06/12 02:44:15;;;;;;;56.30;32.47;;;;;;;14.90;87.12;98736.44;5025216;28;20072;-61
2021/06/12 02:46:44;;;;;;;51.67;29.98;;;;;;;14.98;87.05;98743.06;5026013;28;20041;-61
2021/06/12 02:49:11;;;;;;;63.55;34.58;;;;;;;14.98;87.23;98746.63;5037233;28;20171;-59
2021/06/12 02:51:42;;;;;;;56.85;32.45;;;;;;;15.05;87.10;98737.84;5028763;28;20056;-62
2021/06/12 02:54:10;;;;;;;56.90;33.53;;;;;;;15.15;87.04;98745.75;5028389;28;20041;-62
2021/06/12 02:56:37;;;;;;;66.38;34.30;;;;;;;15.13;86.86;98741.72;5028834;28;20088;-61
2021/06/12 02:59:09;;;;;;;61.83;34.35;;;;;;;15.06;86.67;98744.16;5027810;28;20521;-61
2021/06/12 03:01:38;;;;;;;60.30;35.08;;;;;;;15.15;86.53;98736.66;5029420;28;20505;-62
2021/06/12 03:04:04;;;;;;;72.47;36.05;;;;;;;15.23;86.42;98743.28;5028365;28;20140;-62
2021/06/12 03:06:31;;;;;;;69.28;36.53;;;;;;;15.24;86.28;98748.47;5029919;28;20691;-61
2021/06/12 03:08:59;;;;;;;58.83;35.55;;;;;;;15.31;86.72;98745.19;5028046;28;20041;-62
2021/06/12 03:11:29;;;;;;;57.92;34.58;;;;;;;15.27;86.16;98746.97;5018394;28;20045;-61
2021/06/12 03:13:57;;;;;;;56.90;33.55;;;;;;;15.33;86.45;98737.41;5030137;28;20045;-60
2021/06/12 03:16:24;;;;;;;65.75;36.67;;;;;;;15.22;85.77;98741.66;5027139;28;20057;-63
2021/06/12 03:18:51;;;;;;;67.65;36.03;;;;;;;15.33;86.05;98748.41;5029068;28;20313;-63
2021/06/12 03:21:27;;;;;;;55.72;33.95;;;;;;;15.41;85.74;98739.28;5027255;28;20146;-63
2021/06/12 03:23:56;;;;;;;62.00;36.08;;;;;;;15.41;85.20;98744.00;5030144;28;20214;-62
2021/06/12 03:26:22;;;;;;;75.63;38.45;;;;;;;15.38;85.29;98734.44;5028670;28;20052;-61
2021/06/12 03:28:51;;;;;;;71.07;36.97;;;;;;;15.45;85.27;98733.91;5028852;28;20049;-62
2021/06/12 03:31:18;;;;;;;68.97;38.17;;;;;;;15.43;85.41;98731.50;5028188;28;20042;-62
2021/06/12 03:33:44;;;;;;;73.03;38.83;;;;;;;15.45;85.32;98734.75;5027790;28;20056;-62
2021/06/12 03:36:11;;;;;;;82.32;40.00;;;;;;;15.39;85.21;98733.31;5026942;28;20136;-62
2021/06/12 03:38:37;;;;;;;75.30;38.40;;;;;;;15.48;85.17;98727.75;5028127;28;20053;-62
2021/06/12 03:41:04;;;;;;;69.57;35.70;;;;;;;15.54;84.85;98726.41;5029137;28;20385;-62
2021/06/12 03:43:30;;;;;;;73.95;36.88;;;;;;;15.65;84.65;98729.59;5028653;28;20053;-63
2021/06/12 03:45:59;;;;;;;72.35;37.63;;;;;;;15.73;84.36;98731.44;5026393;28;20042;-61
2021/06/12 03:48:25;;;;;;;67.30;36.30;;;;;;;15.74;84.33;98729.53;5027012;28;20045;-62
2021/06/12 03:50:53;;;;;;;86.30;39.20;;;;;;;15.69;84.30;98727.75;5029111;28;20091;-62
2021/06/12 03:53:21;;;;;;;82.10;39.38;;;;;;;15.79;84.34;98734.81;5028921;28;20486;-61
2021/06/12 03:55:48;;;;;;;67.00;35.78;;;;;;;15.86;84.10;98731.53;5027554;28;20057;-62
2021/06/12 03:58:15;;;;;;;70.47;37.03;;;;;;;15.93;84.09;98733.78;5027675;28;20077;-60
2021/06/12 04:00:42;;;;;;;72.13;35.33;;;;;;;16.00;83.98;98725.75;5029034;28;20096;-62
2021/06/12 04:03:10;;;;;;;63.58;34.55;;;;;;;16.07;83.97;98733.47;5028220;28;20038;-62
2021/06/12 04:05:36;;;;;;;;;;;;;;;16.14;83.57;98739.28;5028335;28;20115;-61
2021/06/12 04:08:02;;;;;;;65.57;34.78;;;;;;;16.15;83.27;98733.41;5028079;28;19924;-61
2021/06/12 04:10:28;;;;;;;61.75;34.75;;;;;;;16.22;83.68;98741.13;5027366;28;20050;-61
2021/06/12 04:12:54;;;;;;;68.20;35.08;;;;;;;16.29;82.90;98741.41;5028091;28;20049;-61
2021/06/12 04:15:20;;;;;;;71.63;36.65;;;;;;;16.38;82.93;98740.50;5025238;28;20053;-61
2021/06/12 04:17:47;;;;;;;62.00;34.90;;;;;;;16.47;82.32;98743.16;5026915;28;20053;-61
2021/06/12 04:20:14;;;;;;;64.78;34.05;;;;;;;16.54;82.29;98724.91;5028035;28;20068;-61
2021/06/12 04:22:41;;;;;;;66.95;36.35;;;;;;;16.73;81.83;98742.91;5027112;28;20541;-61
2021/06/12 04:25:08;;;;;;;62.43;35.33;;;;;;;16.82;81.43;98735.31;5024612;28;20051;-63
2021/06/12 04:27:35;;;;;;;71.43;37.45;;;;;;;16.82;80.99;98726.25;5028645;28;20353;-60
2021/06/12 04:30:02;;;;;;;67.60;34.90;;;;;;;16.84;80.72;98729.47;5027880;28;20045;-60
2021/06/12 04:32:28;;;;;;;74.33;35.67;;;;;;;16.93;81.16;98726.59;5027196;28;20044;-60
2021/06/12 04:34:54;;;;;;;69.18;36.60;;;;;;;17.07;80.74;98727.09;5026825;28;20668;-61
2021/06/12 04:37:21;;;;;;;62.78;34.65;;;;;;;17.01;80.32;98723.75;5026861;28;20056;-61
2021/06/12 04:39:47;;;;;;;65.18;33.97;;;;;;;17.03;79.98;98720.66;5030252;28;20053;-60
2021/06/12 04:42:14;;;;;;;60.65;32.95;;;;;;;17.05;80.12;98723.06;5030764;28;20493;-61
2021/06/12 04:44:40;;;;;;;69.45;35.25;;;;;;;17.10;80.44;98726.41;5030491;28;20148;-60
2021/06/12 04:47:06;;;;;;;60.72;33.13;;;;;;;17.10;79.98;98729.16;5032157;28;20136;-60
2021/06/12 04:49:32;;;;;;;62.35;32.33;;;;;;;17.11;80.09;98721.72;5032095;28;20049;-61
2021/06/12 04:51:58;;;;;;;56.90;31.48;;;;;;;17.15;79.88;98725.38;5029717;28;20041;-61
2021/06/12 04:54:25;;;;;;;65.18;33.78;;;;;;;17.17;79.24;98720.31;5030221;28;20155;-61
2021/06/12 04:56:51;;;;;;;54.40;30.65;;;;;;;17.27;79.07;98719.88;5031333;28;20041;-61
2021/06/12 04:59:17;;;;;;;54.88;30.50;;;;;;;17.34;79.18;98724.00;5032532;28;20576;-61
2021/06/12 05:01:43;;;;;;;53.75;29.63;;;;;;;17.38;78.65;98725.72;5029723;28;20055;-61
2021/06/12 05:04:09;;;;;;;54.97;29.05;;;;;;;17.50;78.66;98715.81;5030024;28;20665;-61
2021/06/12 05:06:35;;;;;;;47.53;30.63;;;;;;;17.59;78.28;98722.00;5032782;28;20042;-60
2021/06/12 05:09:01;;;;;;;51.17;29.30;;;;;;;17.67;77.95;98723.00;5031926;28;20045;-60
2021/06/12 05:11:28;;;;;;;45.13;27.95;;;;;;;17.76;77.39;98711.81;5028861;28;20054;-61
2021/06/12 05:13:54;;;;;;;48.72;28.63;;;;;;;17.79;77.61;98722.16;5031082;28;20054;-61
2021/06/12 05:16:21;;;;;;;62.22;35.60;;;;;;;17.76;77.08;98720.94;5030447;28;20505;-61
2021/06/12 05:18:47;;;;;;;46.25;29.38;;;;;;;17.84;76.93;98716.41;5029539;28;20065;-61
2021/06/12 05:21:14;;;;;;;48.95;29.60;;;;;;;17.93;76.32;98714.28;5030613;28;20052;-60
2021/06/12 05:23:40;;;;;;;48.97;31.40;;;;;;;17.92;76.41;98709.13;5030503;28;20045;-61
2021/06/12 05:26:08;;;;;;;44.40;29.08;;;;;;;17.82;75.95;98696.63;5030583;28;20132;-60
2021/06/12 05:28:36;;;;;;;49.90;30.35;;;;;;;17.51;76.97;98692.53;5029547;28;20144;-62
2021/06/12 05:31:02;;;;;;;;;;;;;;;17.64;76.95;98691.38;5030447;28;20052;-61
2021/06/12 05:33:30;;;;;;;51.08;30.70;;;;;;;17.72;76.27;98684.88;5029405;28;19940;-61
2021/06/12 05:35:58;;;;;;;48.92;27.95;;;;;;;17.80;76.00;98690.63;5031154;28;20520;-61
2021/06/12 05:38:25;;;;;;;44.55;27.15;;;;;;;17.92;75.42;98695.31;5031306;28;20395;-61
2021/06/12 05:40:51;;;;;;;;;;;;;;;18.14;74.81;98696.75;5030098;28;20081;-61
2021/06/12 05:43:17;;;;;;;41.80;25.30;;;;;;;18.48;74.26;98691.72;5028757;28;20389;-60
2021/06/12 05:45:45;;;;;;;42.58;24.95;;;;;;;18.91;73.53;98691.22;5030046;28;20050;-62
2021/06/12 05:48:11;;;;;;;44.83;26.17;;;;;;;19.12;72.90;98700.06;5030146;28;20061;-61
2021/06/12 05:50:37;;;;;;;39.42;25.65;;;;;;;19.11;72.24;98689.34;5027992;28;20052;-62
2021/06/12 05:53:03;;;;;;;38.45;24.98;;;;;;;19.21;72.08;98701.84;5030527;28;20054;-61
2021/06/12 05:55:30;;;;;;;43.38;25.80;;;;;;;19.29;71.86;98700.84;5029609;28;20046;-62
2021/06/12 05:57:56;;;;;;;33.60;24.03;;;;;;;19.39;71.26;98702.25;5031057;28;20080;-62
2021/06/12 06:00:23;;;;;;;41.15;24.20;;;;;;;19.46;71.03;98691.34;5025864;28;20112;-61
2021/06/12 06:02:51;;;;;;;31.48;21.15;;;;;;;19.55;70.19;98682.81;5028716;28;20045;-61
2021/06/12 06:05:17;;;;;;;33.58;21.15;;;;;;;19.72;70.02;98691.88;5029740;28;20049;-61
2021/06/12 06:07:43;;;;;;;33.35;21.10;;;;;;;19.79;69.58;98689.25;5031812;28;20048;-60
2021/06/12 06:10:09;;;;;;;34.30;20.60;;;;;;;19.87;69.28;98695.75;5029442;28;20076;-62
2021/06/12 06:12:36;;;;;;;36.22;22.02;;;;;;;19.84;69.37;98681.44;5031708;28;20045;-62
2021/06/12 06:15:03;;;;;;;35.00;21.58;;;;;;;19.87;69.28;98684.66;5029572;28;20053;-61
2021/06/12 06:17:29;;;;;;;31.25;20.83;;;;;;;19.97;68.79;98681.34;5029827;28;20048;-61
2021/06/12 06:19:56;;;;;;;35.40;19.98;;;;;;;20.09;67.81;98680.38;5031056;28;20136;-60
2021/06/12 06:22:22;;;;;;;29.90;20.65;;;;;;;20.08;67.56;98685.13;5028446;28;20041;-62
2021/06/12 06:24:49;;;;;;;30.45;19.80;;;;;;;20.08;67.67;98676.81;5026973;28;20111;-62
2021/06/12 06:27:15;;;;;;;68.50;47.80;;;;;;;20.07;67.90;98680.75;5026883;28;20048;-61
2021/06/12 06:29:41;;;;;;;35.38;20.90;;;;;;;20.02;68.09;98680.25;5026845;28;20076;-61
2021/06/12 06:32:07;;;;;;;40.17;22.10;;;;;;;19.99;67.83;98681.75;5026995;28;20053;-62
2021/06/12 06:34:33;;;;;;;36.38;21.60;;;;;;;19.97;68.13;98678.56;5029768;28;20050;-61
2021/06/12 06:37:01;;;;;;;33.50;21.50;;;;;;;19.96;68.07;98682.50;5026119;28;20327;-59
2021/06/12 06:39:27;;;;;;;35.72;20.42;;;;;;;19.89;68.14;98657.34;5028191;28;20041;-61
2021/06/12 06:41:53;;;;;;;32.58;20.55;;;;;;;20.02;67.65;98674.69;5026917;28;20126;-60
2021/06/12 06:44:19;;;;;;;30.85;19.08;;;;;;;20.00;67.59;98666.72;5027477;28;20096;-62
2021/06/12 06:46:46;;;;;;;30.00;19.23;;;;;;;20.01;67.35;98660.00;5027050;28;20068;-60
2021/06/12 06:49:12;;;;;;;35.05;20.15;;;;;;;20.04;67.38;98661.25;5021407;28;20046;-61
2021/06/12 06:51:38;;;;;;;31.45;20.42;;;;;;;20.06;67.17;98670.00;5027620;28;20053;-61
2021/06/12 06:54:05;;;;;;;30.33;19.00;;;;;;;20.17;66.96;98665.47;5027470;28;20049;-61
2021/06/12 06:56:32;;;;;;;29.98;19.92;;;;;;;20.12;67.18;98671.31;5029909;28;20068;-61
2021/06/12 06:58:58;;;;;;;35.65;21.38;;;;;;;20.06;67.55;98670.81;5029232;28;20506;-60
2021/06/12 07:01:24;;;;;;;34.67;21.55;;;;;;;19.96;67.45;98668.63;5028221;28;20105;-60
2021/06/12 07:03:50;;;;;;;32.10;19.98;;;;;;;20.09;67.14;98672.88;5028299;28;20052;-60
2021/06/12 07:06:16;;;;;;;31.90;19.88;;;;;;;20.20;67.29;98669.47;5029760;28;20053;-63
2021/06/12 07:08:42;;;;;;;32.53;20.52;;;;;;;20.32;67.01;98668.53;5029445;28;20061;-62
2021/06/12 07:11:10;;;;;;;33.20;21.42;;;;;;;;;;5029085;28;20576;-64
2021/06/12 07:13:36;;;;;;;32.97;22.08;;;;;;;20.27;66.64;98667.63;5028348;28;20655;-63
2021/06/12 07:16:02;;;;;;;30.48;20.08;;;;;;;20.39;66.13;98676.97;5028790;28;20076;-64
2021/06/12 07:18:28;;;;;;;28.30;19.67;;;;;;;20.52;65.94;98666.47;5027768;28;20133;-63
2021/06/12 07:20:54;;;;;;;27.95;18.95;;;;;;;20.47;65.35;98669.56;5030240;28;20041;-62
2021/06/12 07:23:21;;;;;;;25.05;17.80;;;;;;;20.32;65.24;98671.28;5028115;28;20041;-64
2021/06/12 07:25:47;;;;;;;26.00;16.55;;;;;;;20.31;65.35;98656.59;5027637;28;20099;-67
2021/06/12 07:28:16;;;;;;;26.08;17.40;;;;;;;20.30;65.54;98663.31;5008770;28;20041;-63
2021/06/12 07:30:42;;;;;;;27.95;18.42;;;;;;;20.39;64.99;98658.34;5028238;28;20552;-64
2021/06/12 07:33:11;;;;;;;29.60;18.80;;;;;;;20.50;65.04;98661.31;5026732;28;20045;-64
2021/06/12 07:35:37;;;;;;;36.13;19.63;;;;;;;20.42;65.62;98661.56;5027384;28;20058;-64
2021/06/12 07:38:04;;;;;;;27.73;17.35;;;;;;;20.47;65.53;98661.25;5029661;28;20417;-63
2021/06/12 07:40:30;;;;;;;25.67;16.60;;;;;;;20.55;64.56;98657.44;5030580;28;20233;-65
2021/06/12 07:42:56;;;;;;;27.50;17.00;;;;;;;20.69;63.94;98656.88;5025792;28;20232;-62
2021/06/12 07:45:24;;;;;;;27.42;17.98;;;;;;;20.78;63.19;98656.59;5029240;28;20409;-63
2021/06/12 07:47:51;;;;;;;23.85;16.83;;;;;;;20.83;63.21;98661.88;5028322;28;20049;-63
2021/06/12 07:50:17;;;;;;;25.67;17.67;;;;;;;20.92;63.08;98650.53;5028534;28;20049;-62
2021/06/12 07:52:43;;;;;;;24.20;16.95;;;;;;;21.00;62.87;98649.44;5028407;28;20424;-65
2021/06/12 07:55:11;;;;;;;23.05;16.90;;;;;;;21.06;62.37;98649.94;5028478;28;20087;-63
2021/06/12 07:57:38;;;;;;;32.00;19.70;;;;;;;21.14;62.66;98650.84;5028542;28;20520;-64
2021/06/12 08:00:05;;;;;;;25.00;17.83;;;;;;;21.02;63.02;98655.44;5029082;28;20136;-63
2021/06/12 08:02:41;;;;;;;31.50;18.80;;;;;;;20.99;62.88;98658.16;5028037;28;20056;-63
2021/06/12 08:05:07;;;;;;;24.83;16.20;;;;;;;20.84;63.41;98652.41;5029152;28;20153;-62
2021/06/12 08:07:33;;;;;;;21.70;14.40;;;;;;;20.73;63.71;98657.72;5028596;28;20045;-62
2021/06/12 08:10:02;;;;;;;21.90;12.80;;;;;;;20.79;62.77;98664.59;5026697;28;20046;-65
2021/06/12 08:12:29;;;;;;;21.88;13.95;;;;;;;20.80;62.51;98657.03;5027740;28;20033;-63
2021/06/12 08:14:56;;;;;;;22.63;13.25;;;;;;;20.76;62.91;98657.00;5030260;28;20053;-62
2021/06/12 08:17:22;;;;;;;20.38;13.95;;;;;;;20.81;62.85;98658.66;5033118;28;20091;-63
2021/06/12 08:19:50;;;;;;;22.13;14.50;;;;;;;20.80;62.98;98663.44;5032928;28;20079;-63
2021/06/12 08:22:16;;;;;;;25.48;15.52;;;;;;;20.74;63.36;98666.88;5040162;28;20049;-62
2021/06/12 08:24:43;;;;;;;24.45;16.65;;;;;;;20.57;63.73;98660.63;5031937;28;20045;-62
2021/06/12 08:27:09;;;;;;;29.27;16.87;;;;;;;20.67;63.98;98662.78;5032889;28;20075;-62
2021/06/12 08:29:35;;;;;;;26.27;17.20;;;;;;;20.71;63.82;98662.06;5029429;28;20361;-62
2021/06/12 08:32:01;;;;;;;28.60;17.60;;;;;;;20.77;63.92;98663.34;5030703;28;20117;-65
2021/06/12 08:34:27;;;;;;;29.67;16.38;;;;;;;20.80;63.91;98663.44;5031761;28;20083;-61
2021/06/12 08:36:55;;;;;;;29.65;16.27;;;;;;;20.91;64.05;98663.59;5031276;28;20136;-62
2021/06/12 08:39:21;;;;;;;25.90;15.90;;;;;;;20.96;63.24;98654.16;5029734;28;20048;-62
2021/06/12 08:41:47;;;;;;;28.08;19.33;;;;;;;21.17;62.86;98661.22;5032817;28;20045;-60
2021/06/12 08:44:16;;;;;;;29.42;18.45;;;;;;;21.40;63.01;98661.13;5031730;28;20041;-62
2021/06/12 08:46:43;;;;;;;29.17;17.77;;;;;;;21.42;62.64;98663.56;5030611;28;20076;-64
2021/06/12 08:49:09;;;;;;;24.33;16.38;;;;;;;21.37;62.14;98651.56;5030613;28;20115;-65
2021/06/12 08:51:35;;;;;;;24.80;15.73;;;;;;;21.39;62.36;98657.56;5031229;28;20084;-62
2021/06/12 08:54:03;;;;;;;25.17;16.83;;;;;;;21.44;62.30;98655.63;5032057;28;20045;-64
2021/06/12 08:56:29;;;;;;;29.58;17.50;;;;;;;21.32;62.29;98656.69;5031397;28;20056;-62
2021/06/12 08:58:56;;;;;;;35.42;18.27;;;;;;;21.20;62.04;98663.22;5030704;28;20049;-63
2021/06/12 09:01:22;;;;;;;33.75;19.05;;;;;;;21.19;62.39;98656.06;5030783;28;20045;-63
2021/06/12 09:03:49;;;;;;;33.10;18.03;;;;;;;20.79;62.66;98661.00;5032391;28;20523;-63
2021/06/12 09:06:18;;;;;;;31.48;17.67;;;;;;;20.82;62.58;98655.53;5032133;28;20037;-62
2021/06/12 09:08:45;;;;;;;29.90;18.08;;;;;;;20.80;63.00;98644.00;5031697;28;20056;-62
2021/06/12 09:11:14;;;;;;;23.38;15.68;;;;;;;20.83;63.20;98650.75;5031517;28;20049;-63
2021/06/12 09:13:43;;;;;;;20.67;14.27;;;;;;;20.84;62.67;98652.41;5030608;28;20104;-64
2021/06/12 09:16:38;;;;;;;24.60;13.95;;;;;;;20.95;62.01;98655.34;5031568;28;20095;-63
2021/06/12 09:19:06;;;;;;;20.88;13.88;;;;;;;21.03;61.83;98654.25;5031049;28;20132;-63
2021/06/12 09:21:34;;;;;;;19.50;15.13;;;;;;;21.03;61.98;98653.47;5031768;28;20053;-63
2021/06/12 09:24:02;;;;;;;22.98;15.80;;;;;;;20.84;62.83;98655.16;5031838;28;20057;-62
2021/06/12 09:26:46;;;;;;;22.95;15.32;;;;;;;20.48;63.88;98662.84;5031201;28;20077;-63
2021/06/12 09:29:17;;;;;;;21.92;15.35;;;;;;;20.24;64.36;98654.50;5031889;28;20150;-63
2021/06/12 09:31:45;;;;;;;19.73;15.10;;;;;;;20.11;64.51;98645.56;5030862;28;20053;-63
2021/06/12 09:34:15;;;;;;;20.45;16.55;;;;;;;20.09;65.23;98652.63;5045013;28;20045;-62
2021/06/12 09:36:44;;;;;;;29.92;16.45;;;;;;;20.11;65.01;98656.66;5032035;28;20042;-63
2021/06/12 09:39:13;;;;;;;26.58;17.73;;;;;;;20.18;64.56;98653.22;5046651;28;20057;-62
2021/06/12 09:41:46;;;;;;;25.63;18.27;;;;;;;20.16;65.35;98649.19;5029194;28;20095;-61
2021/06/12 09:44:12;;;;;;;23.80;16.40;;;;;;;20.12;65.40;98647.16;5030044;28;20045;-64
2021/06/12 09:46:41;;;;;;;21.90;16.50;;;;;;;20.09;65.15;98642.34;5029878;28;20041;-64
2021/06/12 09:49:10;;;;;;;21.98;17.17;;;;;;;20.16;65.31;98641.69;5030412;28;20053;-62
2021/06/12 09:51:37;;;;;;;33.72;20.92;;;;;;;20.26;65.25;98641.06;5029208;28;20129;-63
2021/06/12 09:54:06;;;;;;;26.85;17.10;;;;;;;20.38;65.13;98642.88;5031016;28;20038;-65
2021/06/12 09:56:32;;;;;;;27.67;17.52;;;;;;;20.40;65.51;98640.53;5030067;28;20045;-63
2021/06/12 09:59:17;;;;;;;25.80;17.17;;;;;;;20.49;65.48;98643.06;5028088;28;20045;-63
2021/06/12 10:01:49;;;;;;;31.45;17.90;;;;;;;20.60;65.10;98643.22;5031280;28;20069;-63
2021/06/12 10:04:16;;;;;;;28.42;18.10;;;;;;;20.74;64.95;98641.88;5030520;28;20125;-64
2021/06/12 10:06:43;;;;;;;23.55;17.00;;;;;;;20.90;64.56;98634.22;5027270;28;20054;-62
2021/06/12 10:09:09;;;;;;;27.60;18.02;;;;;;;21.04;64.40;98636.41;5028405;28;20509;-64
2021/06/12 10:11:36;;;;;;;26.73;17.80;;;;;;;21.13;63.81;98638.13;5029184;28;20625;-63
2021/06/12 10:14:04;;;;;;;;;;;;;;;21.22;63.23;98635.88;5031064;28;20053;-63
2021/06/12 10:16:32;;;;;;;25.45;18.63;;;;;;;21.20;62.92;98635.44;5030260;28;19932;-62
2021/06/12 10:19:00;;;;;;;28.08;19.50;;;;;;;21.07;62.79;98630.13;5029874;28;20045;-61
2021/06/12 10:21:26;;;;;;;38.03;21.77;;;;;;;21.14;62.30;98623.06;5038039;28;20111;-60
2021/06/12 10:23:53;;;;;;;31.65;21.65;;;;;;;21.44;61.54;98619.50;5029693;28;20502;-61
2021/06/12 10:26:21;;;;;;;35.35;23.20;;;;;;;21.46;61.42;98625.47;5027273;28;20514;-62
2021/06/12 10:28:47;;;;;;;34.88;23.75;;;;;;;21.51;61.62;98623.16;5031196;28;20060;-63
2021/06/12 10:31:18;;;;;;;36.13;25.73;;;;;;;21.50;61.44;98620.75;5028970;28;20107;-61
2021/06/12 10:33:46;;;;;;;42.47;23.92;;;;;;;21.49;61.55;98619.97;5029212;28;20046;-60
2021/06/12 10:36:14;;;;;;;36.28;23.45;;;;;;;21.68;61.12;98615.47;5027876;28;20053;-63
2021/06/12 10:38:40;;;;;;;28.45;21.00;;;;;;;22.04;60.46;98613.06;5029749;28;20053;-62
2021/06/12 10:41:15;;;;;;;29.63;20.15;;;;;;;22.12;60.00;98615.94;5029084;28;20056;-61
2021/06/12 10:43:41;;;;;;;37.80;23.55;;;;;;;22.26;59.78;98607.75;5029904;28;20049;-61
2021/06/12 10:46:13;;;;;;;40.65;25.50;;;;;;;22.07;59.83;98598.38;5025736;28;20077;-63
2021/06/12 10:48:42;;;;;;;39.30;23.63;;;;;;;21.91;60.20;98597.81;5029225;28;20505;-62
2021/06/12 10:51:09;;;;;;;39.85;24.90;;;;;;;22.00;60.30;98600.28;5029969;28;20532;-61
2021/06/12 10:53:36;;;;;;;;;;;;;;;22.01;59.21;98593.53;5028908;28;20527;-63
2021/06/12 10:56:04;;;;;;;25.85;19.77;;;;;;;21.92;59.21;98577.16;5030208;28;19928;-61
2021/06/12 10:58:42;;;;;;;27.98;20.63;;;;;;;21.99;58.62;98582.00;5030262;28;20587;-61
2021/06/12 11:01:14;;;;;;;31.73;20.55;;;;;;;22.22;58.11;98579.84;5029918;28;20049;-63
2021/06/12 11:09:37;;;;;;;36.78;21.17;;;;;;;22.83;57.33;98581.56;5029989;28;20600;-60
2021/06/12 11:12:24;;;;;;;24.00;18.65;;;;;;;22.89;56.85;98568.06;5028876;28;20173;-61
2021/06/12 11:14:54;;;;;;;;;;;;;;;22.66;56.78;98572.69;5028478;28;20037;-61
2021/06/12 11:17:20;;;;;;;29.05;20.13;;;;;;;22.56;57.26;98555.91;5028589;28;19925;-62
2021/06/12 11:19:50;;;;;;;24.42;17.42;;;;;;;21.85;56.85;98560.41;5029844;28;20095;-61
2021/06/12 11:22:23;;;;;;;35.78;19.67;;;;;;;22.18;57.11;98556.78;5028929;28;20049;-62
2021/06/12 11:24:50;;;;;;;32.88;18.77;;;;;;;22.51;56.98;98549.50;5029043;28;20053;-61
2021/06/12 11:27:28;;;;;;;24.08;17.70;;;;;;;22.79;55.49;98545.34;5030174;28;20405;-59
2021/06/12 11:30:22;;;;;;;20.35;15.68;;;;;;;22.56;53.99;98548.34;5029373;28;20508;-61